sensor_id;sensor_type;location;lat;lon;timestamp;P1;durP1;ratioP1;P2;durP2;ratioP2
64653;SDS011;51065;48.884;12.598;2023-06-10T00:00:34;6.65;;;3.30;;
64653;SDS011;51065;48.884;12.598;2023-06-10T00:03:00;6.90;;;3.28;;
64653;SDS011;51065;48.884;12.598;2023-06-10T00:05:26;6.78;;;3.42;;
64653;SDS011;51065;48.884;12.598;2023-06-10T00:07:54;8.65;;;3.88;;
64653;SDS011;51065;48.884;12.598;2023-06-10T00:10:21;7.80;;;4.03;;
64653;SDS011;51065;48.884;12.598;2023-06-10T00:12:47;9.55;;;3.83;;
64653;SDS011;51065;48.884;12.598;2023-06-10T00:15:12;8.68;;;4.20;;
64653;SDS011;51065;48.884;12.598;2023-06-10T00:17:38;6.97;;;3.38;;
64653;SDS011;51065;48.884;12.598;2023-06-10T00:20:05;7.63;;;3.33;;
64653;SDS011;51065;48.884;12.598;2023-06-10T00:22:36;7.13;;;3.47;;
64653;SDS011;51065;48.884;12.598;2023-06-10T00:25:04;8.15;;;3.80;;
64653;SDS011;51065;48.884;12.598;2023-06-10T00:27:31;7.38;;;3.45;;
64653;SDS011;51065;48.884;12.598;2023-06-10T00:30:01;7.00;;;3.20;;
64653;SDS011;51065;48.884;12.598;2023-06-10T00:32:29;7.28;;;3.78;;
64653;SDS011;51065;48.884;12.598;2023-06-10T00:34:56;7.85;;;3.38;;
64653;SDS011;51065;48.884;12.598;2023-06-10T00:37:21;6.85;;;3.60;;
64653;SDS011;51065;48.884;12.598;2023-06-10T00:39:47;8.48;;;4.05;;
64653;SDS011;51065;48.884;12.598;2023-06-10T00:42:13;8.02;;;3.97;;
64653;SDS011;51065;48.884;12.598;2023-06-10T00:44:38;8.98;;;3.60;;
64653;SDS011;51065;48.884;12.598;2023-06-10T00:47:04;8.45;;;4.28;;
64653;SDS011;51065;48.884;12.598;2023-06-10T00:49:31;7.00;;;3.60;;
64653;SDS011;51065;48.884;12.598;2023-06-10T00:51:57;7.22;;;3.58;;
64653;SDS011;51065;48.884;12.598;2023-06-10T00:54:23;8.05;;;4.03;;
64653;SDS011;51065;48.884;12.598;2023-06-10T00:56:50;8.30;;;3.60;;
64653;SDS011;51065;48.884;12.598;2023-06-10T00:59:17;7.78;;;3.80;;
64653;SDS011;51065;48.884;12.598;2023-06-10T01:01:43;7.65;;;3.70;;
64653;SDS011;51065;48.884;12.598;2023-06-10T01:04:12;9.20;;;4.05;;
64653;SDS011;51065;48.884;12.598;2023-06-10T01:12:31;8.43;;;3.53;;
64653;SDS011;51065;48.884;12.598;2023-06-10T01:14:42;8.02;;;3.50;;
64653;SDS011;51065;48.884;12.598;2023-06-10T01:17:09;8.90;;;3.78;;
64653;SDS011;51065;48.884;12.598;2023-06-10T01:19:34;10.43;;;4.10;;
64653;SDS011;51065;48.884;12.598;2023-06-10T01:22:01;8.65;;;3.78;;
64653;SDS011;51065;48.884;12.598;2023-06-10T01:24:27;8.15;;;3.67;;
64653;SDS011;51065;48.884;12.598;2023-06-10T01:26:53;7.40;;;3.88;;
64653;SDS011;51065;48.884;12.598;2023-06-10T01:29:26;8.48;;;3.75;;
64653;SDS011;51065;48.884;12.598;2023-06-10T01:32:06;9.02;;;3.83;;
64653;SDS011;51065;48.884;12.598;2023-06-10T01:34:36;7.72;;;3.58;;
64653;SDS011;51065;48.884;12.598;2023-06-10T01:37:04;8.75;;;4.00;;
64653;SDS011;51065;48.884;12.598;2023-06-10T01:39:30;8.00;;;3.92;;
64653;SDS011;51065;48.884;12.598;2023-06-10T01:41:57;9.30;;;4.20;;
64653;SDS011;51065;48.884;12.598;2023-06-10T01:44:23;8.93;;;4.57;;
64653;SDS011;51065;48.884;12.598;2023-06-10T01:46:49;9.40;;;4.50;;
64653;SDS011;51065;48.884;12.598;2023-06-10T01:49:15;9.18;;;4.43;;
64653;SDS011;51065;48.884;12.598;2023-06-10T01:51:40;9.13;;;4.70;;
64653;SDS011;51065;48.884;12.598;2023-06-10T01:54:06;8.98;;;3.97;;
64653;SDS011;51065;48.884;12.598;2023-06-10T01:56:32;10.15;;;4.50;;
64653;SDS011;51065;48.884;12.598;2023-06-10T01:58:58;11.15;;;4.78;;
64653;SDS011;51065;48.884;12.598;2023-06-10T02:01:26;10.65;;;4.82;;
64653;SDS011;51065;48.884;12.598;2023-06-10T02:03:51;12.45;;;5.20;;
64653;SDS011;51065;48.884;12.598;2023-06-10T02:06:18;10.38;;;4.60;;
64653;SDS011;51065;48.884;12.598;2023-06-10T02:08:43;8.63;;;4.43;;
64653;SDS011;51065;48.884;12.598;2023-06-10T02:11:09;9.50;;;4.43;;
64653;SDS011;51065;48.884;12.598;2023-06-10T02:13:34;9.55;;;4.40;;
64653;SDS011;51065;48.884;12.598;2023-06-10T02:16:00;10.65;;;4.60;;
64653;SDS011;51065;48.884;12.598;2023-06-10T02:18:26;10.55;;;4.88;;
64653;SDS011;51065;48.884;12.598;2023-06-10T02:20:53;10.55;;;4.68;;
64653;SDS011;51065;48.884;12.598;2023-06-10T02:23:19;10.13;;;4.60;;
64653;SDS011;51065;48.884;12.598;2023-06-10T02:25:44;8.60;;;4.28;;
64653;SDS011;51065;48.884;12.598;2023-06-10T02:28:12;10.88;;;4.60;;
64653;SDS011;51065;48.884;12.598;2023-06-10T02:30:39;7.50;;;4.05;;
64653;SDS011;51065;48.884;12.598;2023-06-10T02:33:06;10.13;;;4.53;;
64653;SDS011;51065;48.884;12.598;2023-06-10T02:35:35;9.75;;;4.53;;
64653;SDS011;51065;48.884;12.598;2023-06-10T02:38:01;10.63;;;4.82;;
64653;SDS011;51065;48.884;12.598;2023-06-10T02:40:27;10.68;;;4.70;;
64653;SDS011;51065;48.884;12.598;2023-06-10T02:42:53;9.88;;;4.50;;
64653;SDS011;51065;48.884;12.598;2023-06-10T02:45:18;10.57;;;4.40;;
64653;SDS011;51065;48.884;12.598;2023-06-10T02:47:44;9.82;;;4.40;;
64653;SDS011;51065;48.884;12.598;2023-06-10T02:50:10;8.85;;;4.03;;
64653;SDS011;51065;48.884;12.598;2023-06-10T02:52:36;9.13;;;4.28;;
64653;SDS011;51065;48.884;12.598;2023-06-10T02:55:02;8.52;;;4.10;;
64653;SDS011;51065;48.884;12.598;2023-06-10T02:57:27;8.77;;;4.13;;
64653;SDS011;51065;48.884;12.598;2023-06-10T02:59:53;10.20;;;4.63;;
64653;SDS011;51065;48.884;12.598;2023-06-10T03:02:19;10.60;;;4.53;;
64653;SDS011;51065;48.884;12.598;2023-06-10T03:04:44;9.23;;;4.25;;
64653;SDS011;51065;48.884;12.598;2023-06-10T03:07:10;11.82;;;4.75;;
64653;SDS011;51065;48.884;12.598;2023-06-10T03:09:36;12.45;;;5.07;;
64653;SDS011;51065;48.884;12.598;2023-06-10T03:12:02;10.15;;;4.65;;
64653;SDS011;51065;48.884;12.598;2023-06-10T03:14:28;10.82;;;5.10;;
64653;SDS011;51065;48.884;12.598;2023-06-10T03:16:53;12.85;;;5.03;;
64653;SDS011;51065;48.884;12.598;2023-06-10T03:19:19;10.52;;;4.60;;
64653;SDS011;51065;48.884;12.598;2023-06-10T03:21:49;9.90;;;4.38;;
64653;SDS011;51065;48.884;12.598;2023-06-10T03:24:19;11.75;;;5.47;;
64653;SDS011;51065;48.884;12.598;2023-06-10T03:26:45;11.02;;;5.28;;
64653;SDS011;51065;48.884;12.598;2023-06-10T03:29:11;10.15;;;4.07;;
64653;SDS011;51065;48.884;12.598;2023-06-10T03:31:36;11.13;;;5.35;;
64653;SDS011;51065;48.884;12.598;2023-06-10T03:34:03;11.82;;;4.97;;
64653;SDS011;51065;48.884;12.598;2023-06-10T03:36:29;12.05;;;4.97;;
64653;SDS011;51065;48.884;12.598;2023-06-10T03:38:55;14.13;;;5.18;;
64653;SDS011;51065;48.884;12.598;2023-06-10T03:41:21;10.45;;;4.72;;
64653;SDS011;51065;48.884;12.598;2023-06-10T03:43:47;11.20;;;5.40;;
64653;SDS011;51065;48.884;12.598;2023-06-10T03:46:13;15.40;;;5.40;;
64653;SDS011;51065;48.884;12.598;2023-06-10T03:48:40;11.88;;;5.22;;
64653;SDS011;51065;48.884;12.598;2023-06-10T03:51:06;12.82;;;5.45;;
64653;SDS011;51065;48.884;12.598;2023-06-10T03:53:31;10.98;;;4.80;;
64653;SDS011;51065;48.884;12.598;2023-06-10T03:55:57;11.68;;;5.60;;
64653;SDS011;51065;48.884;12.598;2023-06-10T03:58:22;11.65;;;5.28;;
64653;SDS011;51065;48.884;12.598;2023-06-10T04:00:48;9.95;;;4.72;;
64653;SDS011;51065;48.884;12.598;2023-06-10T04:03:14;9.30;;;4.63;;
64653;SDS011;51065;48.884;12.598;2023-06-10T04:05:40;12.25;;;5.03;;
64653;SDS011;51065;48.884;12.598;2023-06-10T04:08:07;9.48;;;4.32;;
64653;SDS011;51065;48.884;12.598;2023-06-10T04:10:33;10.48;;;4.70;;
64653;SDS011;51065;48.884;12.598;2023-06-10T04:12:58;9.32;;;4.88;;
64653;SDS011;51065;48.884;12.598;2023-06-10T04:15:24;11.60;;;4.63;;
64653;SDS011;51065;48.884;12.598;2023-06-10T04:17:50;9.00;;;4.35;;
64653;SDS011;51065;48.884;12.598;2023-06-10T04:20:16;10.45;;;4.65;;
64653;SDS011;51065;48.884;12.598;2023-06-10T04:22:41;11.00;;;4.88;;
64653;SDS011;51065;48.884;12.598;2023-06-10T04:25:08;9.18;;;4.00;;
64653;SDS011;51065;48.884;12.598;2023-06-10T04:27:34;8.93;;;3.90;;
64653;SDS011;51065;48.884;12.598;2023-06-10T04:30:00;8.52;;;4.03;;
64653;SDS011;51065;48.884;12.598;2023-06-10T04:32:25;9.68;;;4.00;;
64653;SDS011;51065;48.884;12.598;2023-06-10T04:34:51;11.73;;;4.43;;
64653;SDS011;51065;48.884;12.598;2023-06-10T04:37:17;8.82;;;4.20;;
64653;SDS011;51065;48.884;12.598;2023-06-10T04:39:43;9.15;;;4.30;;
64653;SDS011;51065;48.884;12.598;2023-06-10T04:42:08;8.85;;;4.50;;
64653;SDS011;51065;48.884;12.598;2023-06-10T04:44:34;8.13;;;4.10;;
64653;SDS011;51065;48.884;12.598;2023-06-10T04:47:00;6.88;;;3.90;;
64653;SDS011;51065;48.884;12.598;2023-06-10T04:49:25;6.00;;;3.50;;
64653;SDS011;51065;48.884;12.598;2023-06-10T04:51:51;9.00;;;4.57;;
64653;SDS011;51065;48.884;12.598;2023-06-10T04:54:17;7.63;;;4.15;;
64653;SDS011;51065;48.884;12.598;2023-06-10T04:56:42;8.30;;;4.40;;
64653;SDS011;51065;48.884;12.598;2023-06-10T04:59:08;7.65;;;4.10;;
64653;SDS011;51065;48.884;12.598;2023-06-10T05:01:33;9.60;;;4.03;;
64653;SDS011;51065;48.884;12.598;2023-06-10T05:03:59;8.60;;;4.63;;
64653;SDS011;51065;48.884;12.598;2023-06-10T05:06:24;9.68;;;4.80;;
64653;SDS011;51065;48.884;12.598;2023-06-10T05:08:50;7.50;;;4.18;;
64653;SDS011;51065;48.884;12.598;2023-06-10T05:11:16;8.75;;;4.38;;
64653;SDS011;51065;48.884;12.598;2023-06-10T05:13:41;6.47;;;3.85;;
64653;SDS011;51065;48.884;12.598;2023-06-10T05:16:08;7.57;;;3.90;;
64653;SDS011;51065;48.884;12.598;2023-06-10T05:18:34;7.80;;;3.35;;
64653;SDS011;51065;48.884;12.598;2023-06-10T05:21:00;6.80;;;3.95;;
64653;SDS011;51065;48.884;12.598;2023-06-10T05:23:27;8.20;;;4.07;;
64653;SDS011;51065;48.884;12.598;2023-06-10T05:25:52;7.07;;;3.83;;
64653;SDS011;51065;48.884;12.598;2023-06-10T05:28:18;6.45;;;3.83;;
64653;SDS011;51065;48.884;12.598;2023-06-10T05:30:44;7.93;;;3.88;;
64653;SDS011;51065;48.884;12.598;2023-06-10T05:33:10;8.35;;;4.38;;
64653;SDS011;51065;48.884;12.598;2023-06-10T05:35:36;7.10;;;3.97;;
64653;SDS011;51065;48.884;12.598;2023-06-10T05:38:02;8.45;;;4.35;;
64653;SDS011;51065;48.884;12.598;2023-06-10T05:40:27;7.95;;;4.18;;
64653;SDS011;51065;48.884;12.598;2023-06-10T05:42:53;9.13;;;3.90;;
64653;SDS011;51065;48.884;12.598;2023-06-10T05:45:18;6.65;;;4.05;;
64653;SDS011;51065;48.884;12.598;2023-06-10T05:47:44;5.78;;;3.60;;
64653;SDS011;51065;48.884;12.598;2023-06-10T05:50:10;5.90;;;3.47;;
64653;SDS011;51065;48.884;12.598;2023-06-10T05:52:35;8.10;;;3.67;;
64653;SDS011;51065;48.884;12.598;2023-06-10T05:55:02;7.47;;;4.18;;
64653;SDS011;51065;48.884;12.598;2023-06-10T05:57:28;8.63;;;3.67;;
64653;SDS011;51065;48.884;12.598;2023-06-10T05:59:54;7.13;;;4.00;;
64653;SDS011;51065;48.884;12.598;2023-06-10T06:02:19;6.22;;;3.55;;
64653;SDS011;51065;48.884;12.598;2023-06-10T06:04:45;6.80;;;3.60;;
64653;SDS011;51065;48.884;12.598;2023-06-10T06:07:10;7.43;;;3.53;;
64653;SDS011;51065;48.884;12.598;2023-06-10T06:09:36;6.15;;;3.63;;
64653;SDS011;51065;48.884;12.598;2023-06-10T06:12:02;7.30;;;3.60;;
64653;SDS011;51065;48.884;12.598;2023-06-10T06:14:30;7.05;;;3.47;;
64653;SDS011;51065;48.884;12.598;2023-06-10T06:16:56;9.07;;;3.67;;
64653;SDS011;51065;48.884;12.598;2023-06-10T06:19:21;6.00;;;3.60;;
64653;SDS011;51065;48.884;12.598;2023-06-10T06:21:47;7.28;;;3.75;;
64653;SDS011;51065;48.884;12.598;2023-06-10T06:24:13;7.28;;;3.40;;
64653;SDS011;51065;48.884;12.598;2023-06-10T06:26:40;5.40;;;3.38;;
64653;SDS011;51065;48.884;12.598;2023-06-10T06:29:06;5.93;;;3.15;;
64653;SDS011;51065;48.884;12.598;2023-06-10T06:31:31;7.85;;;3.83;;
64653;SDS011;51065;48.884;12.598;2023-06-10T06:33:57;5.40;;;3.55;;
64653;SDS011;51065;48.884;12.598;2023-06-10T06:36:22;6.93;;;3.60;;
64653;SDS011;51065;48.884;12.598;2023-06-10T06:38:48;5.63;;;3.70;;
64653;SDS011;51065;48.884;12.598;2023-06-10T06:41:14;6.32;;;3.88;;
64653;SDS011;51065;48.884;12.598;2023-06-10T06:43:39;7.28;;;3.80;;
64653;SDS011;51065;48.884;12.598;2023-06-10T06:46:05;6.95;;;3.72;;
64653;SDS011;51065;48.884;12.598;2023-06-10T06:48:30;7.22;;;3.88;;
64653;SDS011;51065;48.884;12.598;2023-06-10T06:50:56;6.93;;;4.20;;
64653;SDS011;51065;48.884;12.598;2023-06-10T06:53:23;6.82;;;3.53;;
64653;SDS011;51065;48.884;12.598;2023-06-10T06:55:49;7.97;;;3.92;;
64653;SDS011;51065;48.884;12.598;2023-06-10T06:58:15;7.40;;;3.88;;
64653;SDS011;51065;48.884;12.598;2023-06-10T07:00:41;6.57;;;3.80;;
64653;SDS011;51065;48.884;12.598;2023-06-10T07:03:06;5.68;;;3.40;;
64653;SDS011;51065;48.884;12.598;2023-06-10T07:05:32;5.22;;;3.20;;
64653;SDS011;51065;48.884;12.598;2023-06-10T07:07:57;5.97;;;3.67;;
64653;SDS011;51065;48.884;12.598;2023-06-10T07:10:23;5.40;;;3.15;;
64653;SDS011;51065;48.884;12.598;2023-06-10T07:12:50;6.20;;;3.70;;
64653;SDS011;51065;48.884;12.598;2023-06-10T07:15:16;6.57;;;3.60;;
64653;SDS011;51065;48.884;12.598;2023-06-10T07:17:41;6.53;;;3.85;;
64653;SDS011;51065;48.884;12.598;2023-06-10T07:20:07;6.30;;;3.63;;
64653;SDS011;51065;48.884;12.598;2023-06-10T07:22:33;7.68;;;3.80;;
64653;SDS011;51065;48.884;12.598;2023-06-10T07:24:59;11.15;;;3.60;;
64653;SDS011;51065;48.884;12.598;2023-06-10T07:27:24;6.35;;;3.30;;
64653;SDS011;51065;48.884;12.598;2023-06-10T07:29:50;7.18;;;3.80;;
64653;SDS011;51065;48.884;12.598;2023-06-10T07:32:16;5.53;;;3.40;;
64653;SDS011;51065;48.884;12.598;2023-06-10T07:34:42;5.80;;;3.53;;
64653;SDS011;51065;48.884;12.598;2023-06-10T07:37:08;6.90;;;3.63;;
64653;SDS011;51065;48.884;12.598;2023-06-10T07:39:33;7.20;;;3.75;;
64653;SDS011;51065;48.884;12.598;2023-06-10T07:41:59;7.45;;;3.50;;
64653;SDS011;51065;48.884;12.598;2023-06-10T07:44:25;5.90;;;3.38;;
64653;SDS011;51065;48.884;12.598;2023-06-10T07:46:50;7.15;;;3.55;;
64653;SDS011;51065;48.884;12.598;2023-06-10T07:49:16;6.05;;;3.40;;
64653;SDS011;51065;48.884;12.598;2023-06-10T07:51:42;4.97;;;3.22;;
64653;SDS011;51065;48.884;12.598;2023-06-10T07:54:07;6.63;;;3.53;;
64653;SDS011;51065;48.884;12.598;2023-06-10T07:56:33;5.38;;;3.25;;
64653;SDS011;51065;48.884;12.598;2023-06-10T07:58:59;5.65;;;3.25;;
64653;SDS011;51065;48.884;12.598;2023-06-10T08:01:24;4.25;;;3.22;;
64653;SDS011;51065;48.884;12.598;2023-06-10T08:03:50;4.85;;;3.03;;
64653;SDS011;51065;48.884;12.598;2023-06-10T08:06:16;5.82;;;3.20;;
64653;SDS011;51065;48.884;12.598;2023-06-10T08:08:42;5.55;;;3.22;;
64653;SDS011;51065;48.884;12.598;2023-06-10T08:11:09;5.78;;;2.80;;
64653;SDS011;51065;48.884;12.598;2023-06-10T08:13:36;6.45;;;3.20;;
64653;SDS011;51065;48.884;12.598;2023-06-10T08:16:02;5.60;;;3.08;;
64653;SDS011;51065;48.884;12.598;2023-06-10T08:18:28;5.05;;;3.28;;
64653;SDS011;51065;48.884;12.598;2023-06-10T08:20:54;4.55;;;3.17;;
64653;SDS011;51065;48.884;12.598;2023-06-10T08:23:20;5.50;;;3.13;;
64653;SDS011;51065;48.884;12.598;2023-06-10T08:25:45;4.47;;;3.28;;
64653;SDS011;51065;48.884;12.598;2023-06-10T08:28:11;5.88;;;3.13;;
64653;SDS011;51065;48.884;12.598;2023-06-10T08:30:37;5.13;;;3.20;;
64653;SDS011;51065;48.884;12.598;2023-06-10T08:33:02;5.93;;;3.60;;
64653;SDS011;51065;48.884;12.598;2023-06-10T08:35:28;5.93;;;3.60;;
64653;SDS011;51065;48.884;12.598;2023-06-10T08:37:54;5.13;;;3.35;;
64653;SDS011;51065;48.884;12.598;2023-06-10T08:40:19;5.05;;;3.45;;
64653;SDS011;51065;48.884;12.598;2023-06-10T08:42:45;6.90;;;3.70;;
64653;SDS011;51065;48.884;12.598;2023-06-10T08:45:18;6.30;;;3.10;;
64653;SDS011;51065;48.884;12.598;2023-06-10T08:47:47;6.85;;;3.53;;
64653;SDS011;51065;48.884;12.598;2023-06-10T08:50:17;5.22;;;3.35;;
64653;SDS011;51065;48.884;12.598;2023-06-10T08:52:44;4.10;;;2.90;;
64653;SDS011;51065;48.884;12.598;2023-06-10T08:55:16;5.75;;;3.25;;
64653;SDS011;51065;48.884;12.598;2023-06-10T08:57:47;4.72;;;3.10;;
64653;SDS011;51065;48.884;12.598;2023-06-10T09:00:14;5.20;;;3.20;;
64653;SDS011;51065;48.884;12.598;2023-06-10T09:02:41;5.07;;;3.15;;
64653;SDS011;51065;48.884;12.598;2023-06-10T09:05:08;5.30;;;3.38;;
64653;SDS011;51065;48.884;12.598;2023-06-10T09:07:34;7.10;;;3.80;;
64653;SDS011;51065;48.884;12.598;2023-06-10T09:10:01;5.80;;;3.13;;
64653;SDS011;51065;48.884;12.598;2023-06-10T09:12:28;5.07;;;3.25;;
64653;SDS011;51065;48.884;12.598;2023-06-10T09:14:54;5.05;;;3.42;;
64653;SDS011;51065;48.884;12.598;2023-06-10T09:17:20;5.10;;;3.30;;
64653;SDS011;51065;48.884;12.598;2023-06-10T09:19:47;5.28;;;3.42;;
64653;SDS011;51065;48.884;12.598;2023-06-10T09:22:14;5.75;;;3.42;;
64653;SDS011;51065;48.884;12.598;2023-06-10T09:24:39;6.85;;;3.80;;
64653;SDS011;51065;48.884;12.598;2023-06-10T09:27:07;7.05;;;3.65;;
64653;SDS011;51065;48.884;12.598;2023-06-10T09:32:20;5.90;;;3.90;;
64653;SDS011;51065;48.884;12.598;2023-06-10T09:34:47;5.18;;;3.25;;
64653;SDS011;51065;48.884;12.598;2023-06-10T09:37:15;5.93;;;3.42;;
64653;SDS011;51065;48.884;12.598;2023-06-10T09:39:52;5.90;;;3.60;;
64653;SDS011;51065;48.884;12.598;2023-06-10T09:42:32;4.78;;;3.65;;
64653;SDS011;51065;48.884;12.598;2023-06-10T09:44:59;5.17;;;3.13;;
64653;SDS011;51065;48.884;12.598;2023-06-10T09:47:24;6.28;;;3.58;;
64653;SDS011;51065;48.884;12.598;2023-06-10T09:50:05;6.03;;;3.60;;
64653;SDS011;51065;48.884;12.598;2023-06-10T09:52:31;6.10;;;3.60;;
64653;SDS011;51065;48.884;12.598;2023-06-10T09:55:00;6.10;;;3.53;;
64653;SDS011;51065;48.884;12.598;2023-06-10T09:57:30;4.70;;;3.40;;
64653;SDS011;51065;48.884;12.598;2023-06-10T10:00:04;5.63;;;3.60;;
64653;SDS011;51065;48.884;12.598;2023-06-10T10:02:31;5.07;;;2.97;;
64653;SDS011;51065;48.884;12.598;2023-06-10T10:05:03;5.93;;;3.70;;
64653;SDS011;51065;48.884;12.598;2023-06-10T10:07:29;5.35;;;3.50;;
64653;SDS011;51065;48.884;12.598;2023-06-10T10:09:55;4.43;;;3.22;;
64653;SDS011;51065;48.884;12.598;2023-06-10T10:12:21;7.05;;;3.53;;
64653;SDS011;51065;48.884;12.598;2023-06-10T10:14:48;6.20;;;3.55;;
64653;SDS011;51065;48.884;12.598;2023-06-10T10:17:15;5.63;;;3.20;;
64653;SDS011;51065;48.884;12.598;2023-06-10T10:19:53;6.03;;;3.55;;
64653;SDS011;51065;48.884;12.598;2023-06-10T10:22:25;4.88;;;3.30;;
64653;SDS011;51065;48.884;12.598;2023-06-10T10:24:57;5.60;;;3.50;;
64653;SDS011;51065;48.884;12.598;2023-06-10T10:27:27;6.15;;;3.80;;
64653;SDS011;51065;48.884;12.598;2023-06-10T10:29:55;4.65;;;3.15;;
64653;SDS011;51065;48.884;12.598;2023-06-10T10:32:29;5.22;;;3.33;;
64653;SDS011;51065;48.884;12.598;2023-06-10T10:35:06;5.38;;;3.35;;
64653;SDS011;51065;48.884;12.598;2023-06-10T10:37:34;5.75;;;3.35;;
64653;SDS011;51065;48.884;12.598;2023-06-10T10:40:00;5.20;;;3.20;;
64653;SDS011;51065;48.884;12.598;2023-06-10T10:42:28;4.75;;;3.22;;
64653;SDS011;51065;48.884;12.598;2023-06-10T10:44:54;5.18;;;3.50;;
64653;SDS011;51065;48.884;12.598;2023-06-10T10:47:21;5.60;;;3.65;;
64653;SDS011;51065;48.884;12.598;2023-06-10T10:49:48;5.40;;;3.70;;
64653;SDS011;51065;48.884;12.598;2023-06-10T10:52:18;5.47;;;3.33;;
64653;SDS011;51065;48.884;12.598;2023-06-10T10:54:44;5.82;;;3.63;;
64653;SDS011;51065;48.884;12.598;2023-06-10T10:57:21;6.60;;;3.70;;
64653;SDS011;51065;48.884;12.598;2023-06-10T11:02:17;5.90;;;3.65;;
64653;SDS011;51065;48.884;12.598;2023-06-10T11:05:03;6.43;;;3.97;;
64653;SDS011;51065;48.884;12.598;2023-06-10T11:07:30;5.78;;;3.80;;
64653;SDS011;51065;48.884;12.598;2023-06-10T11:09:57;5.93;;;3.63;;
64653;SDS011;51065;48.884;12.598;2023-06-10T11:12:25;5.53;;;3.50;;
64653;SDS011;51065;48.884;12.598;2023-06-10T11:14:55;4.03;;;3.05;;
64653;SDS011;51065;48.884;12.598;2023-06-10T11:17:21;5.53;;;3.47;;
64653;SDS011;51065;48.884;12.598;2023-06-10T11:19:47;4.82;;;3.08;;
64653;SDS011;51065;48.884;12.598;2023-06-10T11:22:16;6.22;;;3.47;;
64653;SDS011;51065;48.884;12.598;2023-06-10T11:24:49;6.85;;;3.65;;
64653;SDS011;51065;48.884;12.598;2023-06-10T11:27:19;5.45;;;3.63;;
64653;SDS011;51065;48.884;12.598;2023-06-10T11:32:23;5.30;;;3.05;;
64653;SDS011;51065;48.884;12.598;2023-06-10T11:34:53;5.22;;;2.90;;
64653;SDS011;51065;48.884;12.598;2023-06-10T11:37:20;3.97;;;2.40;;
64653;SDS011;51065;48.884;12.598;2023-06-10T11:39:46;4.93;;;2.97;;
64653;SDS011;51065;48.884;12.598;2023-06-10T11:42:12;3.97;;;2.90;;
64653;SDS011;51065;48.884;12.598;2023-06-10T11:44:37;4.07;;;2.55;;
64653;SDS011;51065;48.884;12.598;2023-06-10T11:47:03;3.38;;;2.60;;
64653;SDS011;51065;48.884;12.598;2023-06-10T11:49:29;3.75;;;2.40;;
64653;SDS011;51065;48.884;12.598;2023-06-10T11:51:55;4.50;;;2.60;;
64653;SDS011;51065;48.884;12.598;2023-06-10T11:54:21;3.83;;;2.70;;
64653;SDS011;51065;48.884;12.598;2023-06-10T11:56:47;3.50;;;2.28;;
64653;SDS011;51065;48.884;12.598;2023-06-10T11:59:13;4.05;;;2.50;;
64653;SDS011;51065;48.884;12.598;2023-06-10T12:01:43;4.72;;;2.67;;
64653;SDS011;51065;48.884;12.598;2023-06-10T12:04:11;3.80;;;2.30;;
64653;SDS011;51065;48.884;12.598;2023-06-10T12:06:41;3.80;;;2.65;;
64653;SDS011;51065;48.884;12.598;2023-06-10T12:11:52;5.55;;;2.75;;
64653;SDS011;51065;48.884;12.598;2023-06-10T12:17:34;4.03;;;2.70;;
64653;SDS011;51065;48.884;12.598;2023-06-10T12:20:03;5.40;;;3.03;;
64653;SDS011;51065;48.884;12.598;2023-06-10T12:22:40;4.30;;;3.10;;
64653;SDS011;51065;48.884;12.598;2023-06-10T12:25:07;4.53;;;2.78;;
64653;SDS011;51065;48.884;12.598;2023-06-10T12:27:34;4.38;;;3.05;;
64653;SDS011;51065;48.884;12.598;2023-06-10T12:30:00;3.95;;;2.72;;
64653;SDS011;51065;48.884;12.598;2023-06-10T12:33:02;4.68;;;3.10;;
64653;SDS011;51065;48.884;12.598;2023-06-10T12:35:22;5.18;;;2.65;;
64653;SDS011;51065;48.884;12.598;2023-06-10T12:38:09;4.28;;;2.90;;
64653;SDS011;51065;48.884;12.598;2023-06-10T12:40:37;5.03;;;2.95;;
64653;SDS011;51065;48.884;12.598;2023-06-10T12:43:05;3.95;;;2.83;;
64653;SDS011;51065;48.884;12.598;2023-06-10T12:45:34;5.18;;;3.15;;
64653;SDS011;51065;48.884;12.598;2023-06-10T12:48:08;5.28;;;3.20;;
64653;SDS011;51065;48.884;12.598;2023-06-10T12:50:37;5.63;;;2.97;;
64653;SDS011;51065;48.884;12.598;2023-06-10T12:53:05;4.13;;;2.78;;
64653;SDS011;51065;48.884;12.598;2023-06-10T12:55:32;4.90;;;3.20;;
64653;SDS011;51065;48.884;12.598;2023-06-10T12:57:58;5.68;;;3.30;;
64653;SDS011;51065;48.884;12.598;2023-06-10T13:00:31;4.13;;;2.65;;
64653;SDS011;51065;48.884;12.598;2023-06-10T13:03:00;4.93;;;2.53;;
64653;SDS011;51065;48.884;12.598;2023-06-10T13:05:27;4.25;;;2.80;;
64653;SDS011;51065;48.884;12.598;2023-06-10T13:07:53;2.67;;;2.08;;
64653;SDS011;51065;48.884;12.598;2023-06-10T13:10:20;2.47;;;2.13;;
64653;SDS011;51065;48.884;12.598;2023-06-10T13:12:46;2.70;;;2.10;;
64653;SDS011;51065;48.884;12.598;2023-06-10T13:15:12;2.92;;;2.20;;
64653;SDS011;51065;48.884;12.598;2023-06-10T13:17:38;2.35;;;1.98;;
64653;SDS011;51065;48.884;12.598;2023-06-10T13:20:05;3.45;;;2.30;;
64653;SDS011;51065;48.884;12.598;2023-06-10T13:22:32;3.67;;;1.98;;
64653;SDS011;51065;48.884;12.598;2023-06-10T13:24:59;3.10;;;2.22;;
64653;SDS011;51065;48.884;12.598;2023-06-10T13:27:29;2.20;;;2.00;;
64653;SDS011;51065;48.884;12.598;2023-06-10T13:29:54;2.75;;;2.10;;
64653;SDS011;51065;48.884;12.598;2023-06-10T13:32:20;2.80;;;2.20;;
64653;SDS011;51065;48.884;12.598;2023-06-10T13:34:46;3.30;;;2.40;;
64653;SDS011;51065;48.884;12.598;2023-06-10T13:37:11;4.00;;;2.08;;
64653;SDS011;51065;48.884;12.598;2023-06-10T13:39:42;4.45;;;2.72;;
64653;SDS011;51065;48.884;12.598;2023-06-10T13:42:08;4.93;;;2.50;;
64653;SDS011;51065;48.884;12.598;2023-06-10T13:44:34;4.32;;;2.67;;
64653;SDS011;51065;48.884;12.598;2023-06-10T13:47:01;5.90;;;2.95;;
64653;SDS011;51065;48.884;12.598;2023-06-10T13:49:27;6.72;;;3.25;;
64653;SDS011;51065;48.884;12.598;2023-06-10T13:51:53;6.43;;;3.78;;
64653;SDS011;51065;48.884;12.598;2023-06-10T13:54:19;10.40;;;4.22;;
64653;SDS011;51065;48.884;12.598;2023-06-10T13:56:46;9.88;;;4.88;;
64653;SDS011;51065;48.884;12.598;2023-06-10T13:59:11;9.10;;;5.00;;
64653;SDS011;51065;48.884;12.598;2023-06-10T14:01:37;8.20;;;4.20;;
64653;SDS011;51065;48.884;12.598;2023-06-10T14:04:03;10.50;;;4.28;;
64653;SDS011;51065;48.884;12.598;2023-06-10T14:06:29;9.68;;;4.15;;
64653;SDS011;51065;48.884;12.598;2023-06-10T14:08:55;10.93;;;4.53;;
64653;SDS011;51065;48.884;12.598;2023-06-10T14:11:21;11.48;;;4.55;;
64653;SDS011;51065;48.884;12.598;2023-06-10T14:13:47;8.00;;;4.25;;
64653;SDS011;51065;48.884;12.598;2023-06-10T14:16:12;9.50;;;4.43;;
64653;SDS011;51065;48.884;12.598;2023-06-10T14:18:38;10.48;;;4.35;;
64653;SDS011;51065;48.884;12.598;2023-06-10T14:21:03;7.93;;;4.13;;
64653;SDS011;51065;48.884;12.598;2023-06-10T14:23:29;8.43;;;4.47;;
64653;SDS011;51065;48.884;12.598;2023-06-10T14:25:55;7.80;;;4.10;;
64653;SDS011;51065;48.884;12.598;2023-06-10T14:28:21;8.95;;;4.55;;
64653;SDS011;51065;48.884;12.598;2023-06-10T14:30:46;7.18;;;3.85;;
64653;SDS011;51065;48.884;12.598;2023-06-10T14:33:12;9.00;;;4.03;;
64653;SDS011;51065;48.884;12.598;2023-06-10T14:35:37;7.13;;;3.80;;
64653;SDS011;51065;48.884;12.598;2023-06-10T14:38:03;7.63;;;4.05;;
64653;SDS011;51065;48.884;12.598;2023-06-10T14:40:29;7.40;;;4.20;;
64653;SDS011;51065;48.884;12.598;2023-06-10T14:42:55;9.27;;;4.85;;
64653;SDS011;51065;48.884;12.598;2023-06-10T14:45:21;6.07;;;3.72;;
64653;SDS011;51065;48.884;12.598;2023-06-10T14:47:46;9.45;;;4.85;;
64653;SDS011;51065;48.884;12.598;2023-06-10T14:50:13;8.70;;;3.80;;